Hlavní strana
METAR-TAF:

METAR-TAF

Letiště :

Narsarsuaq, Grónsko

zeměpisná šířka: 61-10N, zeměpisná délka: 045-25W, výška: 34 m

Aktuální stav počasí

Zpráva byla vytvořena před 18 minutami, v 06:50 UTC
Západní vítr 8 kt
Teplota 7°C
Vlhkost vzduchu 87%
Tlak 1011 hPa
Viditelnost: 2800 m
slabé dešťové přeháňky

METAR: BGBW 200650Z AUTO 27008KT 2800NDV -SHRA FEW004/// BKN010/// BKN015/// 07/05 Q1011

Čas: 05:08 (07:08 UTC)

Předpověď počasí

Zpráva byla vytvořena před 11 hodinami a 5 minutami, v 20:03 UTC
Předpověď platná od 19 v 21 UTC do 19 v 24 UTC
Západojihozápadní vítr 8 kt
Viditelnost 10 km a více
Skoro jasno ve výšce 800 ft
Oblačno až skoro zataženo ve výšce 2500 ft
slabý déšť
Dočasný
od 19 v 21 UTC do 19 v 22 UTC
Viditelnost: 6000 m
Oblačno až skoro zataženo ve výšce 1400 ft
déšť
Dočasný
od 19 v 22 UTC do 19 v 24 UTC
Viditelnost: 6000 m
Oblačno až skoro zataženo ve výšce 900 ft
déšť

TAF: BGBW 192003Z 1921/1924 24008KT 9999 -RA FEW008 BKN025 TEMPO 1921/1922 6000 RA BKN014 TEMPO 1922/1924 6000 RA BKN009

Stav a předpovědi počasí z více než 4 000 letišť (zprávy METAR a TAF).

Červené a žluté tečky na mapě představují dostupné meteorologické stanice.

Když kurzor umístíte na tečku, zobrazí se název stanice.

Pak kliknutím zobrazíte stav a předpověď počasí.

Chcete-li změnit mapu, kliknutím na zelené tlačítko se znaménkem +mapu přiblížíte, kliknutím na zelené tlačítko se znaménkem – mapu oddálíte a kliknutím na zelené šipky přejdete na sousední mapy.


METAR-TAF: